2021 Good News MTB
Race Results
4/11/2021 - XC Six Sigma Ranch
Pro Open Men     Time highlighted in each category is the fastest
Pos Bib Name Age License City Sponsor Lap 1 Lap 2 Lap 3 Lap 4 Lap 5 Laps Time Avg Back Racer ID
1 37  Cassius Anderson 19 -  Novato CA   36:57 37:55 38:23 - - 3 1:53:15 37:45   24830
2 760  Dan English 16 -  San Ramon CA  Rock Lobster 37:28 38:36 37:44 - - 3 1:53:48 37:56 00:33 3217
3 735  Lars Lofgren 39 -  Folsom CA  Cycling Dev - Mike's Bikes 38:43 39:05 38:13 - - 3 1:56:01 38:40 02:46 23095
4 935  Jason Perez 37 -  Brentwood CA  Rojo Racing 38:43 38:53 39:45 - - 3 1:57:21 39:07 04:06 9380
5 558  Brent Wood 36 -  Felton CA   38:43 39:01 41:15 - - 3 1:58:59 39:40 05:44 13910
6 839  Cameron Adams 19 -  San Carlos CA  Bear National Team 37:27 38:37 43:08 - - 3 1:59:12 39:44 05:57 24317
7 25  Mike Nowak 41 -  Woodside CA  Team Roaring Mouse 38:43 39:36 41:02 - - 3 1:59:21 39:47 06:06 24743
8 736  Travis Tucker 19 -  Sebastopol CA   37:27 39:06 43:28 - - 3 2:00:01 40:00 06:46 17319
9 40  James Karr 19 -  San Anselmo CA   38:42 39:39 41:58 - - 3 2:00:19 40:06 07:04 22278
10 896  James Hewett 50 -  Fairfax CA  B-17 Racing 39:46 40:47 42:44 - - 3 2:03:17 41:06 10:02 10407
11 918  Kell Mckenzie 39 -  Oakland CA  King Kog / Squid Bikes 41:34 42:45 46:16 - - 3 2:10:34 43:31 17:19 10610
12 953  Paul Serra 21 -  Redwood City CA  Oakley/Osmo/Cushcore 45:47 46:28 - - - 2 1:32:15 46:07 - 27630
dnf 10  Chaz Halbert 30 -  Rocklin CA  Specialized Dev/Mikes Bikes 38:42 - - - - 1 38:42 38:42 -  9403
dns 223  Griffin Hoppin 18 -  Mill Valley CA  Marin Academy - - - - - 0 - - -  26946
dns 769  Jack Duncan 29 -  Santa Rosa CA   - - - - - 0 - - -  22078
Varsity Boys (Elite/Open)     Time highlighted in each category is the fastest
Pos Bib Name Age License City Sponsor Lap 1 Lap 2 Lap 3 Lap 4 Lap 5 Laps Time Avg Back Racer ID
1 28  Eliah Reeves 17 -  Rncho Cordova CA  Mikes Bikes - Specialized Dev 38:56 37:30 38:05 - - 3 1:54:31 38:10   19496
2 234  Sam Hart 17 -  Reno NV  Reno Devo 38:56 38:20 38:47 - - 3 1:56:02 38:41 01:31 3291
3 537  Andrew Carr 18 -  Salinas CA   38:56 38:19 39:03 - - 3 1:56:18 38:46 01:47 27338
4 915  Blake Macheras 19 -  Santa Rosa CA   38:56 38:20 39:24 - - 3 1:56:40 38:53 02:09 22146
5 934  Justin Peck 18 -  Los Gatos CA  Los Gatos Bicycle Racing Club 38:57 38:19 39:35 - - 3 1:56:51 38:57 02:20 17794
6 242  Zander Holmes 17 -  Shingle Springs CA  Specialized mikes bikes 39:07 39:27 40:30 - - 3 1:59:04 39:41 04:33 23445
7 805  Henry Pritchard 17 -  Greenbrae CA   38:58 38:41 41:36 - - 3 1:59:15 39:45 04:44 27248
8 726  Blake Elmer 17 -  Folsom CA  Specialized Dev/Mikes Bikes 39:07 40:14 42:00 - - 3 2:01:21 40:27 06:50 23407
9 725  Gabriel Cabrera 15 -  Folsom CA  Cycling-Dev-Mikes Bikes 41:22 41:47 39:49 - - 3 2:02:58 40:59 08:27 5409
10 219  Carson Fellows 18 -  Folsom CA  Specialized Dev - Mike's Bikes 40:04 41:23 42:40 - - 3 2:04:07 41:22 09:36 21241
11 815  Sam Fried 18 -  Novato CA   39:38 41:55 42:57 - - 3 2:04:30 41:30 09:59 22274
12 876  Casimir De Maigret 18 -  Napa CA  Napa Valley Composite 39:07 42:19 43:15 - - 3 2:04:41 41:34 10:10 27559
13 818  Riley Mullen 19 -  Santa Rosa CA   38:56 43:34 43:26 - - 3 2:05:56 41:59 11:25 22044
14 924  Daniel Moreno 18 -  Salinas CA  Salinas High School 40:05 41:59 43:58 - - 3 2:06:02 42:01 11:31 27583
15 949  Enzo Sapojnikoff 18 -  Los Altos CA   39:55 45:41 41:42 - - 3 2:07:18 42:26 12:47 27629
16 229  Ethan Thomas 18 -  Roseville CA  Specialized Mike's Bikes 41:38 42:26 43:35 - - 3 2:07:39 42:33 13:08 26619
17 868  Joe Chester 18 -  Chico CA  NorCal Composite 41:49 42:15 44:41 - - 3 2:08:45 42:55 14:14 27556
18 241  Jeff Essers 17 -  El Dorado Hills CA  Specialized Dev/Mike's Bikes 42:32 43:44 44:45 - - 3 2:11:01 43:40 16:30 23422
19 243  Sam Jester 17 -  Diamond Springs CA  Specialized Development/Mikes Bikes 42:08 43:45 48:16 - - 3 2:14:09 44:43 19:38 23423
20 239  Keaton Wyrick 18 -  Granite Bay CA  Granite Bay Grizzlies 45:25 - - - - 1 45:25 45:25 - 26995
dnf 220  Ethan Hennessey 18 -  Grass Valley CA  Summit Development 38:56 40:14 - - - 2 1:19:10 39:35 -  24967
dnf 902  Mattheus Johnson 17 -  Redwood City CA  Pen-Velo Summit Bicycles 38:56 - - - - 1 38:56 38:56 -  27571
Varsity Boys (Born May 2003 or before)     Time highlighted in each category is the fastest
Pos Bib Name Age License City Sponsor Lap 1 Lap 2 Lap 3 Lap 4 Lap 5 Laps Time Avg Back Racer ID
1 221  Devin Hines 18 -  El Dorado Hills CA  Oak Ridge Trojans 42:12 44:09 43:46 - - 3 2:10:07 43:22   14878
2 227  Jalen Sells 18 -  Roseville CA  Woodcreek High School Mountain Bike Team 46:07 49:01 55:31 - - 3 2:30:39 50:13 20:32 26967
dnf 888  Andrew Funk 19 -  Penn Valley CA  Nevada Union Mountain Bike Team 57:49 - - - - 1 57:49 57:49 -  27565
Varsity Boys (Born Jun 2003 - Mar 2004)     Time highlighted in each category is the fastest
Pos Bib Name Age License City Sponsor Lap 1 Lap 2 Lap 3 Lap 4 Lap 5 Laps Time Avg Back Racer ID
1 939  Anthony Pritchett 17 -  Nevada City CA  Nevada Union HS 41:19 41:17 40:24 - - 3 2:03:00 41:00   3279
2 78  Miles Talbert 17 -  Folsom CA  Specialized Dev / Mike's Bikes 41:19 41:18 40:24 - - 3 2:03:01 41:00 00:01 23424
3 230  Tucker Basten 18 -  Roseville CA  Woodcreek 51:50 52:40 1:00:30 - - 3 2:45:00 55:00 42:00 23464
Varsity Boys (Born Apr 2004 or after)     Time highlighted in each category is the fastest
Pos Bib Name Age License City Sponsor Lap 1 Lap 2 Lap 3 Lap 4 Lap 5 Laps Time Avg Back Racer ID
1 719  Nathan Briar 17 -  Oakland CA   51:44 46:19 51:14 - - 3 2:29:17 49:46   27375
Expert Men (Ages 0-44)     Time highlighted in each category is the fastest
Pos Bib Name Age License City Sponsor Lap 1 Lap 2 Lap 3 Lap 4 Lap 5 Laps Time Avg Back Racer ID
1 881  Andrew Duensing 29 -  Danville CA   39:37 39:16 38:44 - - 3 1:57:37 39:12   15491
2 948  Abraham Sanchez 24 -  Campbell CA  LCB Team 42:09 41:44 41:25 - - 3 2:05:18 41:46 07:41 27591
3 22  Matthew Moseley 35 -  Sausalito CA   44:09 43:24 44:15 - - 3 2:11:48 43:56 14:11 13985
4 572  Michael Roberts 41 -  Danville CA   43:58 44:46 46:02 - - 3 2:14:46 44:55 17:09 24766
5 842  Justin Ashby 39 -  Sparks NV   56:26 55:18 1:06:35 - - 3 2:58:19 59:26 1:00:42 27540
dnf 42  Craig Meyers 39 -  Cameron Park CA   44:58 - - - - 1 44:58 44:58 -  21383
dns 45  Brandon Van Cleve 42 -  Rancho Cordova CA   - - - - - 0 - - -  17295
Expert Men (Ages 45-52)     Time highlighted in each category is the fastest
Pos Bib Name Age License City Sponsor Lap 1 Lap 2 Lap 3 Lap 4 Lap 5 Laps Time Avg Back Racer ID
1 960  Philip Tercero 51 -  Morgan Hill CA  Coretechs 39:52 41:58 41:00 - - 3 2:02:50 40:57   13430
2 932  Chris Peck 51 -  Los Gatos CA  Los Gatos Bicycle Racing Club 39:52 41:58 42:25 - - 3 2:04:15 41:25 01:25 17795
3 59  Tait Smith 52 -  Sacramento CA  Rio Strada 40:39 42:18 43:26 - - 3 2:06:23 42:08 03:33 10544
4 54  Charlie Kropf 49 -  El Dorado Hills CA  OBG 42:53 43:13 43:11 - - 3 2:09:17 43:06 06:27 458
5 891  Marcus Gosling 51 -  Redwood City CA  Team Roaring Mouse 42:54 43:32 44:15 - - 3 2:10:41 43:34 07:51 22371
6 840  Greg Anderson 47 -  Sacramento CA  Touchstone Racing 42:52 44:34 45:05 - - 3 2:12:31 44:10 09:41 15527
7 867  Benjamin Chester 49 -  Chico CA  NorCal Composite 43:51 44:53 46:31 - - 3 2:15:15 45:05 12:25 27555
8 874  Rafael Cubero 49 -  Petaluma CA  Mikes Bikes 44:11 45:51 49:30 - - 3 2:19:32 46:31 16:42 27059
9 61  Pete Zlatnik 50 -  Sacramento CA  Folsom Bike 50:51 49:35 47:18 - - 3 2:27:44 49:15 24:54 13957
10 58  Ernie Sayo 48 -  Folsom CA  CBRE Racing 51:22 47:33 49:25 - - 3 2:28:20 49:27 25:30 11893
11 913  Jason Liske 51 -  Placerville CA  Hangtown / Cycling Dev 47:02 47:54 - - - 2 1:34:56 47:28 - 19476
dnf 947  Brian Rouse 52 -  Auburn CA  VICTORY VELO RACING - - - - - 0 - - -  577
dns 57  Aaron Rezentes 47 -  Rancho Cordova CA  Kinetic Cycles - - - - - 0 - - -  9254
dns 13  Jeff Bilodeau 45 -  Granite Bay CA  CBRE Racing - - - - - 0 - - -  194
dns 985  Mark Fellows 49 -  Sacramento CA  Kinetic Cycles - - - - - 0 - - -  350
Expert Men (Ages 53-99)     Time highlighted in each category is the fastest
Pos Bib Name Age License City Sponsor Lap 1 Lap 2 Lap 3 Lap 4 Lap 5 Laps Time Avg Back Racer ID
1 967  Mike Warren 60 -  Sebastopol CA  Velo Fratello 41:38 43:29 43:42 - - 3 2:08:49 42:56   4086
2 872  Duane Coughlan 53 -  Corte Madera CA  ThirstyBear Cycling 43:04 43:05 43:01 - - 3 2:09:10 43:03 00:21 24500
3 73  Chris Sargent 53 -  Cameron Park CA  Specialized Dev/Mikes Bikes 41:29 43:59 48:11 - - 3 2:13:39 44:33 04:50 9344
4 959  Paul Taylor 59 -  Redwood City CA   46:31 48:58 51:54 - - 3 2:27:23 49:08 18:34 25156
5 955  Mattew Smith 57 -  San Francisco CA   58:18 1:04:56 - - - 2 2:03:14 1:01:37 - 10041
dns 937  Gus Platis 53 -  West Sacramento CA  Coureur - Canyon Elite Cycling - - - - - 0 - - -  2925
Pro Open Women     Time highlighted in each category is the fastest
Pos Bib Name Age License City Sponsor Lap 1 Lap 2 Lap 3 Lap 4 Lap 5 Laps Time Avg Back Racer ID
1 1  Marila Alvares 50 -  Sacramento CA  Breakaway Women’s Racing 50:40 53:35 54:56 - - 3 2:39:11 53:04   13737
Varsity Girls     Time highlighted in each category is the fastest
Pos Bib Name Age License City Sponsor Lap 1 Lap 2 Lap 3 Lap 4 Lap 5 Laps Time Avg Back Racer ID
1 998  Danika Brabec 18 -  Gold River CA  Cycling Dev - Mike's Bikes 45:06 46:19 46:02 - - 3 2:17:27 45:49   14869
2 609  Lexi Twing 18 -  Corte Madera CA  Redwood High School 44:52 47:29 45:54 - - 3 2:18:15 46:05 00:48 27449
3 965  Natasha Visnack 17 -  Bend OR  WE Devo 46:06 47:06 46:18 - - 3 2:19:30 46:30 02:03 27027
4 608  Ella Peterson 18 -  Oakland CA  Head-Royce School 48:52 47:52 49:01 - - 3 2:25:45 48:35 08:18 27426
5 206  Avery Daubert 17 -  Rescue CA  Ponderosa High School 48:51 48:52 49:34 - - 3 2:27:17 49:06 09:50 27165
6 21  Ariana Milelli 19 -  Danville CA  Mike's Bikes 48:43 49:51 51:17 - - 3 2:29:51 49:57 12:24 26987
7 209  Hannah Jorgensen 18 -  Carmichael CA  specialized/mikes bikes 49:47 54:00 52:20 - - 3 2:36:07 52:02 18:40 21164
8 217  Amelia Woodul 19 -  Folsom CA  Folsom Bulldogs/Cycling Development 49:52 53:35 55:40 - - 3 2:39:07 53:02 21:40 26953
9 991  Abby Taylor 19 -  Redwood City CA   52:15 55:02 56:52 - - 3 2:44:09 54:43 26:42 27283
10 996  Riva Milner 18 -  Tahoe City CA  GBHS 53:48 56:42 59:31 - - 3 2:50:01 56:40 32:34 27230
11 983  Kida Macgregor 19 -  Palo Alto CA   52:33 55:16 - - - 2 1:47:49 53:55 - 27317
--- 607  Cali Carson 18 -  Oakland CA   - - - - - 0 - - -  26982
--- 845  Julia Barton 18 -  Roseville CA  Woodcreek HS - - - - - 0 - - -  22013
Expert Women (Ages 40-99)     Time highlighted in each category is the fastest
Pos Bib Name Age License City Sponsor Lap 1 Lap 2 Lap 3 Lap 4 Lap 5 Laps Time Avg Back Racer ID
1 894  Rachel Hart 50 -  Reno NV  Reno Devo 50:45 50:52 52:11 - - 3 2:33:48 51:16   26529
2 933  Heather Peck 51 -  Los Gatos CA  Los Gatos Bicycle Racing Club 51:33 53:20 55:59 - - 3 2:40:52 53:37 07:04 22961
3 897  Lynn Hunter 54 -  Sacramento CA  Sacramento Golden Wheelmen 56:07 56:42 1:01:10 - - 3 2:53:59 58:00 20:11 12997
4 141  Kendra Foley 52 -  Modesto CA  Kinetic Cycles 1:00:13 1:06:28 - - - 2 2:06:41 1:03:21 - 15738
JV Boys (Born Oct 2003 or before)     Time highlighted in each category is the fastest
Pos Bib Name Age License City Sponsor Lap 1 Lap 2 Lap 3 Lap 4 Lap 5 Laps Time Avg Back Racer ID
1 804  Brandon Padilla 18 -  Pollock Pines CA  Hangtown Composite 42:52 44:14 - - - 2 1:27:06 43:33   6224
2 299  Colton Johnson 18 -  Roseville CA  Granite Bay Mountain Bike Club 47:36 48:09 - - - 2 1:35:45 47:53 08:39 27207
3 920  Kieran Mcsween 19 -  Middletown CA  Middletown High School 47:22 50:25 - - - 2 1:37:47 48:54 10:41 27582
4 611  Nathan Schanz 18 -  Cazadero CA  EL MOLINO HIGH SCHOOL 50:06 55:45 - - - 2 1:45:51 52:55 18:45 26599
5 880  Lucas Drenth 19 -  Santa Rosa CA   54:15 55:07 - - - 2 1:49:22 54:41 22:16 27616
6 1003  Garrett Jeffrey 19 -  Granite Bay CA  GBHS Mtn Bike Team 56:31 57:29 - - - 2 1:54:00 57:00 26:54 23457
7 922  Dylan Metcalfe 18 -  Novato CA  Novato High School 50:31 1:03:45 - - - 2 1:54:16 57:08 27:10 27622
8 816  Brodie Bucher 18 -  Roseville CA  Roseville High 53:40 1:02:25 - - - 2 1:56:05 58:03 28:59 27482
9 612  Graham Tracy-Patterson 18 -  Oakland CA  Oakland Technical High School 58:02 1:02:38 - - - 2 2:00:40 1:00:20 33:34 27447
dnf 850  Sam Bolshaw 18 -  Roseville CA  Roseville High School 1:02:18 - - - - 1 1:02:18 1:02:18 -  27545
dnf 300  Bilal Muhammad 19 -  Rosville CA   1:12:59 - - - - 1 1:12:59 1:12:59 -  27234
dns 294  Owen Evans 18 -  El Dorado Hills CA  Trojans - - - - - 0 - - -  27175
dns 820  Daniel Gomes-Wagner 18 -  El Cerrito CA   - - - - - 0 - - -  27568
dns 810  Jacob Thornton 19 -  Granite Bay CA   - - - - - 0 - - -  27485
JV Boys (Born Nov 2003-Apr 2004)     Time highlighted in each category is the fastest
Pos Bib Name Age License City Sponsor Lap 1 Lap 2 Lap 3 Lap 4 Lap 5 Laps Time Avg Back Racer ID
1 238  Finn Wells 18 -  El Dorado Hills CA  OAK RIDGE TROJANS 41:58 42:54 - - - 2 1:24:52 42:26   20419
2 642  Maxwell Dubow 18 -  Sausalito CA   42:00 44:19 - - - 2 1:26:19 43:09 01:27 27390
3 793  Matthew Bosano 17 -  Rocklin CA  Whitney High Wildcats 42:07 44:35 - - - 2 1:26:42 43:21 01:50 23406
4 864  Taj Casartelli 18 -  Sf CA  Sf comp 45:07 45:38 - - - 2 1:30:45 45:23 05:53 27551
5 273  Grady Worth 18 -  Shingle Springs CA  Cycling Dev/Ponderosa 47:06 47:07 - - - 2 1:34:13 47:07 09:21 23414
6 890  Sean Giomi 18 -  Nevada City CA  nevada union mtb 46:43 55:31 - - - 2 1:42:14 51:07 17:22 27567
7 276  Ben Fukuda 17 -  Granite Bay CA  Granite Bay High School 49:52 55:50 - - - 2 1:45:42 52:51 20:50 27182
8 263  Ethen Cubberly 18 -  Woodland CA  Davis Composite Mountain Bike Team 57:59 58:54 - - - 2 1:56:53 58:27 32:01 27049
9 236  Dante Romeo 18 -  Danville CA  San Ramon Valley Mtn Bike Team 57:30 1:01:18 - - - 2 1:58:48 59:24 33:56 27110
10 942  Tyree Richard 17 -  Oakland CA  Oakland Tech 1:00:33 1:13:54 - - - 2 2:14:27 1:07:13 49:35 27627
11 919  Dylan Mckillips 17 -  Oakland CA  Oakland Tech High School 1:00:32 1:13:55 - - - 2 2:14:27 1:07:14 49:35 27581
dns 645  Otis Wolbach 18 -  San Francisco CA  San Francisco Comp - - - - - 0 - - -  27456
dns 265  Ryan Harris 18 -  Folsom CA   - - - - - 0 - - -  18617
JV Boys (Born May 2004-Dec 2004)     Time highlighted in each category is the fastest
Pos Bib Name Age License City Sponsor Lap 1 Lap 2 Lap 3 Lap 4 Lap 5 Laps Time Avg Back Racer ID
1 639  Austin Gilchrist 17 -  Nevada City CA  Nevada Union 39:25 40:10 - - - 2 1:19:35 39:48   27396
2 688  Sean Soliven 17 -  Folsom CA  Vista Eagles 41:40 42:29 - - - 2 1:24:09 42:04 04:34 27441
3 685  Steven Beckstead 17 -  Lower Lake CA  Middletown MTB 41:49 42:57 - - - 2 1:24:46 42:23 05:11 26979
4 956  Reyn Smith 17 -  Nevada City CA  Nevada Union Mountain Bike Team 45:00 45:14 - - - 2 1:30:14 45:07 10:39 27596
5 115  Kilian Bush 17 -  Woodland CA  DCMBT 46:49 47:58 - - - 2 1:34:47 47:23 15:12 9454
6 281  Ethan Lujan 17 -  Davis CA  Davis Composite 46:50 49:15 - - - 2 1:36:05 48:02 16:30 26684
7 928  Theo Northrop 17 -  Tiburon CA  Redwood High School 49:39 49:15 - - - 2 1:38:54 49:27 19:19 27586
8 944  Rex Rodgers 17 -  Corte Madera CA  Redwood High School 50:15 50:44 - - - 2 1:40:59 50:29 21:24 27589
9 280  Ben Lee Swenson 17 -  Novato CA  Mikes bikes 49:40 55:42 - - - 2 1:45:22 52:41 25:47 26999
10 284  Dylan Ryan 17 -  Citrus Heights CA  Cycling Dev Spartans 48:23 59:11 - - - 2 1:47:34 53:47 27:59 27260
11 686  Colin Boynton-Westney 17 -  Alamo CA  San Ramon Valley 53:17 57:31 - - - 2 1:50:48 55:24 31:13 27373
12 274  Garrett Bailey 17 -  Granite Bay CA  GBHS Mtn Bike 50:47 1:14:26 - - - 2 2:05:13 1:02:37 45:38 27137
13 916  Oscar Marroquin 17 -  Sparks NV  Reno Devo 1:06:05 1:04:36 - - - 2 2:10:41 1:05:21 51:06 27620
dns 275  Dylan Ervin 17 -  Roseville CA  Woodcreek high - - - - - 0 - - -  27173
dns 279  Garrett Klotz 17 -  Roseville CA  Whitney wildcats (cycling dev) - - - - - 0 - - -  26948
JV Boys (Born Jan 2005 or after)     Time highlighted in each category is the fastest
Pos Bib Name Age License City Sponsor Lap 1 Lap 2 Lap 3 Lap 4 Lap 5 Laps Time Avg Back Racer ID
1 571  Yoann Perrodin 14 -  El Cerrito CA  El Cerrito Junior team 41:27 39:03 - - - 2 1:20:30 40:15   27000
2 718  Finn Bourke 16 -  Portola Vally CA  Woodside Beasts 41:28 42:51 - - - 2 1:24:19 42:10 03:49 26957
3 1004  Harrison Threlfall 16 -  Healdsburg CA  Healdsburg Wheelmen 42:12 42:34 - - - 2 1:24:46 42:23 04:16 27320
4 246  Ian Schweitzer 15 -  Folsom CA  Cycling Dev- Vista Eagles 42:48 42:09 - - - 2 1:24:57 42:28 04:27 10247
5 203  Sam Smith 15 -  Sacramento CA  Spartans Composite 42:48 42:19 - - - 2 1:25:07 42:34 04:37 21385
6 357  Sebastian Vaughan 16 -  Mill Valley CA  Tam High 42:30 44:35 - - - 2 1:27:05 43:32 06:35 27296
7 912  Jason Lehman 16 -  Grass Valley CA   42:51 45:15 - - - 2 1:28:06 44:03 07:36 27578
8 869  Logan Conners 16 -  Nevada City CA  Nevada Union Miners 42:55 45:11 - - - 2 1:28:06 44:03 07:36 17379
9 981  Jack O'Neal 15 -  El Cerrito CA  EC Jr. Mountain Bike Team 42:49 46:32 - - - 2 1:29:21 44:40 08:51 27350
10 1002  Eric Billings 16 -  Carson City NV  Reno Devo 44:29 45:09 - - - 2 1:29:38 44:49 09:08 27146
11 705  Walker Rawlinson 15 -  Tahoe City CA  Privateer 46:30 47:15 - - - 2 1:33:45 46:52 13:15 27430
12 772  Jackson Carlson 13 -  Chico CA  Chico Cycling Team 1:21:04 14:45 - - - 2 1:35:49 47:54 15:19 27467
13 990  Charles Liske 16 -  Placervillle CA  Hangtown / Cycling Dev 47:43 49:15 - - - 2 1:36:58 48:29 16:28 20441
14 681  Max Kosorukov 16 -  Corte Madera CA  Redwood High School 45:25 53:59 - - - 2 1:39:24 49:42 18:54 26961
15 879  Maxwell Doyle 13 -  West Sacramento CA  CBRE 50:26 51:27 - - - 2 1:41:53 50:56 21:23 15735
16 348  Niko Milner 16 -  Tahoe City CA   49:39 52:16 - - - 2 1:41:55 50:57 21:25 27231
17 823  Rajas Apte 14 -  Saratoga CA  Black Mountain Composite 55:42 1:02:32 - - - 2 1:58:14 59:07 37:44 27528
dns 969  Chase Wink 16 -  Hidden Valley Lake CA  Middletown Mountain Bike Team - - - - - 0 - - -  27632
dns 716  Deagon Halbrook 15 -  Oakland CA   - - - - - 0 - - -  27401
Sport Men (Ages 0-31)     Time highlighted in each category is the fastest
Pos Bib Name Age License City Sponsor Lap 1 Lap 2 Lap 3 Lap 4 Lap 5 Laps Time Avg Back Racer ID
1 95  Ethan Ware 19 -  Redding CA  MTB_Norcal 43:10 45:11 - - - 2 1:28:21 44:11   27120
2 954  Shane Siebenthall 22 -  San Jose CA  Another bike shop, 100 percent 47:58 50:21 - - - 2 1:38:19 49:09 09:58 27595
3 116  Louis Gaultney 22 -  Sacramento CA  LeadOut Racing 49:05 50:47 - - - 2 1:39:52 49:56 11:31 1174
4 118  Curtis Opsahl 26 -  Shingle Springs CA  Seafloor 52:13 55:01 - - - 2 1:47:14 53:37 18:53 27107
dns 550  Hayden Wright 20 -  Cameron Parn CA   - - - - - 0 - - -  23418
Sport Men (Ages 32-44)     Time highlighted in each category is the fastest
Pos Bib Name Age License City Sponsor Lap 1 Lap 2 Lap 3 Lap 4 Lap 5 Laps Time Avg Back Racer ID
1 860  Matthew Carlson 44 -  Chico CA  Chico Cycling Team 45:02 46:43 - - - 2 1:31:45 45:53   10367
2 562  Eric Hinkley 36 -  Grass Valley CA  Bikes.Beans.Booch 46:04 45:56 - - - 2 1:32:00 46:00 00:15 24972
3 908  Raymond Kress 44 -  Grass Valley CA  Body Logic/SERT 46:59 49:08 - - - 2 1:36:07 48:03 04:22 22942
4 561  Christopher Atienza 43 -  Pittsburg CA  CBRE Racing 46:20 50:55 - - - 2 1:37:15 48:37 05:30 24836
5 882  Ryan Elmer 42 -  Folsom CA  Cycling Dev 46:40 51:38 - - - 2 1:38:18 49:09 06:33 23520
6 975  Tyler Zwick 33 -  Grass Valley CA  NUHS MTB 48:19 51:50 - - - 2 1:40:09 50:04 08:24 27607
7 847  Aaron Beckstead 44 -  Lower Lake CA  Angry Dolphin 50:46 53:10 - - - 2 1:43:56 51:58 12:11 26980
8 857  Selim Cakir 40 -  Mountain View CA   57:25 1:01:44 - - - 2 1:59:09 59:35 27:24 27547
9 871  Chris Correa 34 -  Santa Rosa CA  El Molino 58:36 1:09:30 - - - 2 2:08:06 1:04:03 36:21 27557
Sport Men (Ages 45-47)     Time highlighted in each category is the fastest
Pos Bib Name Age License City Sponsor Lap 1 Lap 2 Lap 3 Lap 4 Lap 5 Laps Time Avg Back Racer ID
1 573  Brendan Gecik 45 -  Granite Bay CA  DemoWorx 45:01 45:44 - - - 2 1:30:45 45:23   27346
2 152  Eli Makus 47 -  Davis CA   46:21 47:53 - - - 2 1:34:14 47:07 03:29 27035
3 749  Ryan Reeves 46 -  Rncho Cordova CA   46:22 49:25 - - - 2 1:35:47 47:53 05:02 19495
4 157  Kyle Smith 47 -  Vacaville CA   46:53 49:22 - - - 2 1:36:15 48:08 05:30 27116
5 151  Mike Lyster 47 -  Rescue CA  OBG 47:08 50:56 - - - 2 1:38:04 49:02 07:19 6769
6 732  Jet Zapanta 45 -  Folsom CA  Chain Breakers 49:59 53:34 - - - 2 1:43:33 51:46 12:48 8613
7 146  Dave Christensen 45 -  Lincoln CA  Atown Bikes 52:18 53:16 - - - 2 1:45:34 52:47 14:49 9322
8 156  John Shinstock 46 -  Davis CA   53:55 53:08 - - - 2 1:47:03 53:31 16:18 6312
9 848  Brian Benson 46 -  Modesto CA   1:12:50 1:17:04 - - - 2 2:29:54 1:14:57 59:09 27610
Sport Men (Ages 48-49)     Time highlighted in each category is the fastest
Pos Bib Name Age License City Sponsor Lap 1 Lap 2 Lap 3 Lap 4 Lap 5 Laps Time Avg Back Racer ID
1 889  Tim Gilchrist 48 -  Nevada City CA   46:13 46:48 - - - 2 1:33:01 46:30   27566
2 899  Val Ianev 48 -  Rocklin CA  Whitney Wildcats 50:40 54:22 - - - 2 1:45:02 52:31 12:01 12999
3 901  Brian Jacobosky 48 -  Folsom CA   52:34 55:57 - - - 2 1:48:31 54:16 15:30 27570
4 727  Cameron Bennett 47 -  Diamond Springs CA   53:06 56:49 - - - 2 1:49:55 54:57 16:54 22228
5 930  Jason Padilla 48 -  Pollock Pines CA  Hangtown Composite 52:48 58:52 - - - 2 1:51:40 55:50 18:39 9513
6 590  Alvin Yamamoto 49 -  Davis CA  Davis Composite Cat Herders 53:47 57:57 - - - 2 1:51:44 55:52 18:43 27354
7 149  Brian Gaultney 49 -  Sacramento CA  LeadOut Racing 56:19 - - - - 1 56:19 56:19 - 1152
Sport Men (Ages 50-52)     Time highlighted in each category is the fastest
Pos Bib Name Age License City Sponsor Lap 1 Lap 2 Lap 3 Lap 4 Lap 5 Laps Time Avg Back Racer ID
1 941  Glenn Rawlinson 50 -  Tahoe City CA  MAVERICK 45:16 47:13 - - - 2 1:32:29 46:14   27626
2 964  David Visnack 52 -  Bend OR   46:43 50:38 - - - 2 1:37:21 48:40 04:52 27026
3 758  Jeffery Dunkle 51 -  Auburn CA  Victory Velo Racing 50:44 59:48 - - - 2 1:50:32 55:16 18:03 3891
4 945  Doug Roeder 51 -  Menlo Park CA  Woodside Beasts 57:59 55:12 - - - 2 1:53:11 56:35 20:42 27628
5 756  Adrian Guevara 50 -  Pittsburg CA  CBRE Racing 52:57 1:01:18 - - - 2 1:54:15 57:08 21:46 15743
dns 163  James Evans 51 -  Folsom CA   - - - - - 0 - - -  23087
dns 164  Christopher Greene 51 -  Arnold CA   - - - - - 0 - - -  26945
Sport Men (Ages 53-55)     Time highlighted in each category is the fastest
Pos Bib Name Age License City Sponsor Lap 1 Lap 2 Lap 3 Lap 4 Lap 5 Laps Time Avg Back Racer ID
1 852  Sean Bourke 54 -  Portola Valley CA   46:27 44:32 - - - 2 1:30:59 45:29   26958
2 169  Terry Nilsen 53 -  Folsom CA  Unattached 46:32 47:39 - - - 2 1:34:11 47:05 03:12 17774
3 170  Earl (jr) Richardson 53 -  Folsom CA  Kinetic Cycles 53:36 1:00:00 - - - 2 1:53:36 56:48 22:37 566
4 187  John Tamplin 55 -  Rescue CA  Team Seafloor 54:50 1:01:16 - - - 2 1:56:06 58:03 25:07 26951
5 185  Derek Kenzy 55 -  Rescue CA  Team Seafloor 56:48 1:02:22 - - - 2 1:59:10 59:35 28:11 27103
6 165  Loren Hines 53 -  El Dorado Hills CA   56:29 1:03:30 - - - 2 1:59:59 59:59 29:00 21381
dns 55  Pete Conlin 55 -  El Dorado Hills CA  Kinetics - - - - - 0 - - -  15689
Sport Men (Ages 56-59)     Time highlighted in each category is the fastest
Pos Bib Name Age License City Sponsor Lap 1 Lap 2 Lap 3 Lap 4 Lap 5 Laps Time Avg Back Racer ID
1 198  Cliff Wilson 59 -  Morgan Hill CA  Victory Velo Racing 46:09 47:31 - - - 2 1:33:40 46:50   26970
2 968  Roger Williams 56 -  Santa Rosa CA   47:10 48:49 - - - 2 1:35:59 48:00 02:19 27602
3 182  Brian Hicks 56 -  El Dorado Hills CA  CD-Oak Ridge 1:05:27 1:09:55 - - - 2 2:15:22 1:07:41 41:42 27096
4 870  Ron Coopersmith 59 -  San Jose CA   1:10:59 1:14:19 - - - 2 2:25:18 1:12:39 51:38 27615
dnf 179  Michael Bush 57 -  Woodland CA  DCMBT 1:15:06 - - - - 1 1:15:06 1:15:06 -  26472
dns 180  Michael Davirro 56 -  Lincoln CA  Victory Velo Racing - - - - - 0 - - -  20766
Sport Men (Ages 60-99)     Time highlighted in each category is the fastest
Pos Bib Name Age License City Sponsor Lap 1 Lap 2 Lap 3 Lap 4 Lap 5 Laps Time Avg Back Racer ID
1 728  Albert Fox 63 -  Vacaville CA  Davis Bike Club 50:52 54:21 - - - 2 1:45:13 52:36   2448
2 194  Chuck Stevens 65 -  Ross CA  Breaking Away Bicycles 52:59 53:42 - - - 2 1:46:41 53:21 01:28 23004
3 988  Ron Zevalkink 60 -  Auburn CA   59:11 1:03:21 - - - 2 2:02:32 1:01:16 17:19 693
4 846  Dan Beckham 60 -  Tiburon CA   1:05:10 1:23:12 - - - 2 2:28:22 1:14:11 43:09 27543
dns 925  James Morris 62 -  Shingle Springs CA  Bruins MTB team - - - - - 0 - - -  9339
dns 875  Bary Dahlberg 70 -  Truckee CA   - - - - - 0 - - -  8943
JV Girls     Time highlighted in each category is the fastest
Pos Bib Name Age License City Sponsor Lap 1 Lap 2 Lap 3 Lap 4 Lap 5 Laps Time Avg Back Racer ID
1 133  Camille Smith 14 -  Sacramento CA  Placer Foothills MTB 47:33 48:40 - - - 2 1:36:13 48:06   21384
2 843  Hayley Ballard 16 -  San Anselmo CA   48:13 48:26 - - - 2 1:36:39 48:19 00:26 27541
3 253  Hannah Padilla 15 -  Pollock Pines CA  Hangtown Composite 48:13 49:49 - - - 2 1:38:02 49:01 01:49 6237
4 971  Sophia Woehl 17 -  Pacifica CA  San Francisco Composite 50:19 53:42 - - - 2 1:44:01 52:01 07:48 27604
5 977  Kiera Ramirez 17 -  Salinas CA  Salinas high school MTB 50:59 54:59 - - - 2 1:45:58 52:59 09:45 27356
6 260  Mckenna Van Voris 17 -  El Dorado Hills CA  Specialized/Cycling Development/Mikes Bikes 51:34 57:19 - - - 2 1:48:53 54:26 12:40 1004
7 994  Aubrey Tuttle 16 -  Roseville CA  Roseville High School 54:18 57:56 - - - 2 1:52:14 56:07 16:01 27448
8 259  Ava Tolbert 18 -  San Mateo CA   54:17 59:49 - - - 2 1:54:06 57:03 17:53 27287
9 877  Malea Deis 17 -  Foresthill CA  El Molino MTB Club 58:21 58:03 - - - 2 1:56:24 58:12 20:11 27560
10 931  Anna Peck 16 -  Los Gatos CA  Los Gatos Bicycle Racing Club 59:42 1:08:16 - - - 2 2:07:58 1:03:59 31:45 17796
11 250  Mia Davis 17 -  Roseville CA  Woodcreek MTB 1:02:34 1:11:31 - - - 2 2:14:05 1:07:03 37:52 27167
12 248  Natalie Armbrust 18 -  Roseville CA  Woodcreek High MTB 1:04:38 1:13:30 - - - 2 2:18:08 1:09:04 41:55 27129
13 311  Tatum Roberts 16 -  Danville CA  San Ramon Valley Mountain Bike Team 1:10:29 - - - - 1 1:10:29 1:10:29 - 26989
14 251  Willamina Fleming 17 -  Shingle Springs CA  Ponderosa Bruins 1:21:11 - - - - 1 1:21:11 1:21:11 - 27177
dnf 927  Calder Northrop 17 -  Tiburon CA  Redwood High School - - - - - 0 - - -  27585
dns 957  Katherine Stein 17 -  Greenbrae CA  Redwood High School - - - - - 0 - - -  27597
dns 893  Lauren Halbrook 18 -  Oakland CA  OAKLAND TECH - - - - - 0 - - -  27617
Sport Women (Ages 0-39)     Time highlighted in each category is the fastest
Pos Bib Name Age License City Sponsor Lap 1 Lap 2 Lap 3 Lap 4 Lap 5 Laps Time Avg Back Racer ID
1 579  Heather Pitts 35 -  Grass Valley CA   47:40 51:02 - - - 2 1:38:42 49:21   26041
2 576  Stephanie Hayos 30 -  Santa Clara CA   52:40 53:19 - - - 2 1:45:59 53:00 07:17 27355
3 958  Annelise Taine 34 -  Petaluma CA  Hella Mello Racing Team 53:31 55:30 - - - 2 1:49:01 54:30 10:19 27631
4 907  Lauren Kress 33 -  Grass Valley CA  MTB EXPERIENCE 54:23 56:32 - - - 2 1:50:54 55:27 12:12 25952
5 946  Ella Rosenthal 19 -  Davis CA   59:34 1:13:46 - - - 2 2:13:20 1:06:40 34:38 27590
Sport Women (Ages 40-99)     Time highlighted in each category is the fastest
Pos Bib Name Age License City Sponsor Lap 1 Lap 2 Lap 3 Lap 4 Lap 5 Laps Time Avg Back Racer ID
1 914  Elke Macgregor 56 -  Palo Alto CA  Beasta 53:54 53:23 - - - 2 1:47:17 53:39   27579
2 136  Amy Jo Johnson 45 -  San Francisco CA  Team Roaring Mouse 55:14 58:04 - - - 2 1:53:18 56:39 06:01 25227
3 145  Lauren Liden 59 -  Woodbridge CA  Aloha Freakshow 55:56 58:04 - - - 2 1:54:00 57:00 06:43 1410
4 731  Melissa Padilla 49 -  Pollock Pines CA  Hangtown Composite 57:26 58:14 - - - 2 1:55:40 57:50 08:23 6223
5 135  Amanda Fischer 45 -  Davis CA  Davis Comp MTB Coaches 57:27 58:49 - - - 2 1:56:16 58:08 08:59 15706
6 878  Elizabeth Donahey 46 -  Rohnert Park CA   1:00:00 1:03:14 - - - 2 2:03:14 1:01:37 15:57 27561
7 951  Beverly Seabreeze 55 -  Mill Valley CA  tam 1:02:47 1:05:50 - - - 2 2:08:37 1:04:18 21:20 27593
8 77  Libby Conlin 54 -  El Dorado Hills CA  Kinetics 1:04:50 1:09:38 - - - 2 2:14:28 1:07:14 27:11 15690
9 580  Michelle Rezentes 44 -  Rancho Cordova CA   1:08:20 1:13:49 - - - 2 2:22:09 1:11:05 34:52 17671
dns 936  Angie Platis 51 -  West Sacramento CA  Breakaway Women's Racing - - - - - 0 - - -  5470
dns 113  Tina Bilodeau 45 -  Granite Bay CA  CBRE Racing - - - - - 0 - - -  20448
dns 6  Rebecca Hatt 40 -  Folsom CA  The Dirt Birds - - - - - 0 - - -  11933
dns 966  Rachelle Waash 52 -  Morgan Hill CA  SJBC - - - - - 0 - - -  27601
Sophomore Boys (Born Oct 2004 or before)     Time highlighted in each category is the fastest
Pos Bib Name Age License City Sponsor Lap 1 Lap 2 Lap 3 Lap 4 Lap 5 Laps Time Avg Back Racer ID
1 323  Tyler Kunkel 17 -  Mill Valley CA   43:26 - - - - 1 43:26 43:26   27212
2 806  Sage Dworak 17 -  Mill Valley CA  Tamalpais HS 46:16 - - - - 1 46:16 46:16 02:50 27483
3 327  Justin Ritenour 17 -  Roseville CA  Woodcreek High School 47:19 - - - - 1 47:19 47:19 03:53 27254
4 325  Erik Nelson 17 -  Cameron Park CA  Cycling Development 52:08 - - - - 1 52:08 52:08 08:42 26976
5 997  Michael Streetman 17 -  Rescue CA  Cycling Dev/Ponderosa 1:17:14 - - - - 1 1:17:14 1:17:14 33:48 27280
--- 976  Jake Lawson 17 -  Grass Valley CA  Nevada Union MTB - - - - - 0 - - -  27577
--- 332  Kurt Fischer 17 -  Davis CA  Davis Comp MTB - - - - - 0 - - -  26474
Sophomore Boys (Born Nov 2004-Jan 2005)     Time highlighted in each category is the fastest
Pos Bib Name Age License City Sponsor Lap 1 Lap 2 Lap 3 Lap 4 Lap 5 Laps Time Avg Back Racer ID
1 979  Jasper Bayless 16 -  Forestville CA  El molino high school 40:55 - - - - 1 40:55 40:55   27365
2 1001  Eric Lopez 17 -  Roseville CA  Woodcreek 44:46 - - - - 1 44:46 44:46 03:51 27214
3 900  Brian Ines 17 -  Grass Valley CA  Nevada Union HS MTB Team 45:17 - - - - 1 45:17 45:17 04:22 27502
4 853  Taylor Bradford 16 -  Roseville CA  Roseville 1:10:34 - - - - 1 1:10:34 1:10:34 29:39 27612
5 800  Mahyar Namiri 17 -  Roseville CA   1:35:30 - - - - 1 1:35:30 1:35:30 54:35 27238
--- 858  Adelia Canterbury 17 -  Forestville CA  El Molino Highschool - - - - - 0 - - -  27548
Sophomore Boys (Born Feb 2005-Jul 2005)     Time highlighted in each category is the fastest
Pos Bib Name Age License City Sponsor Lap 1 Lap 2 Lap 3 Lap 4 Lap 5 Laps Time Avg Back Racer ID
1 675  Jackson Brayley 16 -  Gold River CA  Gladiators/Cycling Development 46:27 - - - - 1 46:27 46:27   22029
2 984  Lief Yergensen 16 -  El Dorado Hills CA  Cycling Dev 48:20 - - - - 1 48:20 48:20 01:53 26954
3 1011  Lucas Nacamuli 16 -  Greenbrae CA  Redwood High School 48:52 - - - - 1 48:52 48:52 02:25 27420
4 683  Odin Simms 16 -  El Cerrito CA  El Cerrito High School 49:56 - - - - 1 49:56 49:56 03:29 27440
5 790  Justin Callaway 15 -  Cameron Park CA  Cycle Development 50:46 - - - - 1 50:46 50:46 04:19 27155
6 904  Victor Kalastirsky 16 -  Folsom CA  Eagles 53:19 - - - - 1 53:19 53:19 06:52 27572
7 905  Tobias Kornfein 16 -  Sebastopol CA  El Molino 53:36 - - - - 1 53:36 53:36 07:09 27573
8 676  Ethan Constancio 16 -  Roseville CA  Roseville High School 54:02 - - - - 1 54:02 54:02 07:35 27385
9 962  Luke Turner 16 -  San Anselmo CA  Redwood High School 54:11 - - - - 1 54:11 54:11 07:44 27599
10 678  Aidan Fuller 16 -  Oakland CA  Oakland Tech High School 54:11 - - - - 1 54:11 54:11 07:44 27392
11 973  Logan Wood 16 -  Cobb CA  Middletown High School 54:33 - - - - 1 54:33 54:33 08:06 27002
12 344  Seth Martin 16 -  Roseville CA  Woodcreek High School Mountain Bike Team 55:08 - - - - 1 55:08 55:08 08:41 27219
13 895  William Hartung 16 -  Tiburon CA  Redwood High School 1:00:36 - - - - 1 1:00:36 1:00:36 14:09 27618
14 345  Lukas Martin 16 -  Roseville CA  Woodcreek High School MTB 1:00:55 - - - - 1 1:00:55 1:00:55 14:28 27220
15 884  Aaron Epstein 16 -  Nevada City CA  Nevada union mtg team 1:08:49 - - - - 1 1:08:49 1:08:49 22:22 27562
16 952  Max Segers 16 -  Nevada City CA  Nevada Union HS 1:39:34 - - - - 1 1:39:34 1:39:34 53:07 27594
Sophomore Boys (Born Aug 2005 or after)     Time highlighted in each category is the fastest
Pos Bib Name Age License City Sponsor Lap 1 Lap 2 Lap 3 Lap 4 Lap 5 Laps Time Avg Back Racer ID
1 356  Nicholas Toutges 16 -  Folsom CA  Eagles 46:59 - - - - 1 46:59 46:59   971
2 350  Drew Harrell 16 -  Roseville CA  WHS MTB 51:05 - - - - 1 51:05 51:05 04:06 27194
3 351  Ian Hunt 16 -  El Dorado Hills CA  Cycling Development 59:09 - - - - 1 59:09 59:09 12:10 23545
Beginner Men (Ages 0-29)     Time highlighted in each category is the fastest
Pos Bib Name Age License City Sponsor Lap 1 Lap 2 Lap 3 Lap 4 Lap 5 Laps Time Avg Back Racer ID
1 851  Christopher Bonilla 21 -  San Jose CA  Los Gatos 51:39 - - - - 1 51:39 51:39   27611
2 1006  Eric Ray 26 -  Reno NV  Seafloor Systems, Inc. 53:00 - - - - 1 53:00 53:00 01:21 27109
3 545  Aidan Ware 16 -  Redding CA   53:14 - - - - 1 53:14 53:14 01:35 27358
4 1005  Casey Nyquist 25 -  Placerville CA  Seafloor 55:07 - - - - 1 55:07 55:07 03:28 2271
5 630  Aaron Yamamoto 13 -  Davis CA  Davis composite 1:06:51 - - - - 1 1:06:51 1:06:51 15:12 27459
6 86  Josh Aguilar 29 -  Citrus Heights CA  Seafloor 1:28:19 - - - - 1 1:28:19 1:28:19 36:40 27083
--- 313  Colton Bilodeau 9 -  Granite Bay CA  CBRE Racing - - - - - 0 - - -  21344
--- 213  Connor Bilodeau 13 -  Granite Bay CA  CBRE Racing - - - - - 0 - - -  20436
Beginner Men (Ages 30-48)     Time highlighted in each category is the fastest
Pos Bib Name Age License City Sponsor Lap 1 Lap 2 Lap 3 Lap 4 Lap 5 Laps Time Avg Back Racer ID
1 862  Josh Carroll 47 -  Danville CA   49:08 - - - - 1 49:08 49:08   27550
2 841  Ryan Asche 42 -  Roseville CA  Team Grom!!! 1:05:26 - - - - 1 1:05:26 1:05:26 16:18 27539
3 961  Sean Tomlinson 48 -  Davis, Ca CA   1:15:51 - - - - 1 1:15:51 1:15:51 26:43 27598
4 885  Brent Feldt 41 -  Davis CA   1:18:12 - - - - 1 1:18:12 1:18:12 29:04 27563
5 559  Brian Bennett 48 -  Davis CA  davis composite 1:19:19 - - - - 1 1:19:19 1:19:19 30:11 27341
--- 938  Austin Pratt 34 -  Lucerne CA  Lake County Outdoors - - - - - 0 - - -  26988
--- 103  Adam Nesiba 42 -  Danville CA  SRVMTB - - - - - 0 - - -  27106
Beginner Men (Ages 49-99)     Time highlighted in each category is the fastest
Pos Bib Name Age License City Sponsor Lap 1 Lap 2 Lap 3 Lap 4 Lap 5 Laps Time Avg Back Racer ID
1 849  Andrew Bodisco 55 -  Danville CA  Contra Costa Composite 59:10 - - - - 1 59:10 59:10   27544
2 12  David Herman 53 -  Folsom CA  CIR Volunteer/OBG 1:15:06 - - - - 1 1:15:06 1:15:06 15:56 13562
3 903  Timothy Johnson 61 -  Ione CA   1:21:28 - - - - 1 1:21:28 1:21:28 22:18 15695
--- 886  Ismael Flores 51 -  Covina CA   - - - - - 0 - - -  27564
Freshman Boys (Born Dec 2005 or before)     Time highlighted in each category is the fastest
Pos Bib Name Age License City Sponsor Lap 1 Lap 2 Lap 3 Lap 4 Lap 5 Laps Time Avg Back Racer ID
1 598  Matthew Marotto 16 -  Corte Madera CA  Redwood High School 44:04 - - - - 1 44:04 44:04   27416
2 887  Aiden Fraley 16 -  Forestville CA  El Molino Mountain Bike Team 44:37 - - - - 1 44:37 44:37 00:33 23094
3 379  Daniel Mills 16 -  Davis CA   44:42 - - - - 1 44:42 44:42 00:38 27228
4 1007  Luca Hines 15 -  Kentfield CA  Marin Catholic HS 45:11 - - - - 1 45:11 45:11 01:07 27634
5 383  Laydon Waters 16 -  Lincoln CA  Whitney High School 45:19 - - - - 1 45:19 45:19 01:15 27299
6 376  Luke Juday 16 -  Granite Bay CA  GBHS MTB 47:25 - - - - 1 47:25 47:25 03:21 27209
7 375  Ian Glaspy 16 -  Sacramento CA  Gladiators 48:32 - - - - 1 48:32 48:32 04:28 27187
8 1009  Lance Carlo 16 -  Grass Valley CA  Nevada Union HS MTB Team 49:19 - - - - 1 49:19 49:19 05:15 5378
9 381  Wyatt Mueller 16 -  Placerville CA  Hangtown Composite 53:35 - - - - 1 53:35 53:35 09:31 27233
10 993  Tate Wiersema 16 -  Oakland CA  Oakland Tech High School 54:13 - - - - 1 54:13 54:13 10:09 27455
11 377  Nate Makus 16 -  Davis CA  Davis Composite Mountain Bike Team 56:23 - - - - 1 56:23 56:23 12:19 27218
12 940  Ryan Raleigh 16 -  Novato CA  San Marin High School 1:00:10 - - - - 1 1:00:10 1:00:10 16:06 27625
13 384  Chet Wells 16 -  El Dorado Hills CA  OAK RIDGE TROJANS 1:03:01 - - - - 1 1:03:01 1:03:01 18:57 27301
14 910  Magnus Larson 16 -  Oakland CA  Oakland Technical HS 1:03:34 - - - - 1 1:03:34 1:03:34 19:30 27576
15 370  Trevor Armbrust 16 -  Roseville CA  Woodcreek High MTB 1:12:58 - - - - 1 1:12:58 1:12:58 28:54 27130
16 992  Passat Gazowsky 16 -  Somerset CA  Hangtown 1:18:43 - - - - 1 1:18:43 1:18:43 34:39 27185
--- 373  Sam Eastman 16 -  Sanramon CA  SRVMTB - - - - - 0 - - -  27171
Freshman Boys (Born Jan 2006-May 2006)     Time highlighted in each category is the fastest
Pos Bib Name Age License City Sponsor Lap 1 Lap 2 Lap 3 Lap 4 Lap 5 Laps Time Avg Back Racer ID
1 883  Seth Elmer 15 -  Folsom CA  Cycling Dev- Eagles 44:28 - - - - 1 44:28 44:28   23484
2 388  Mason Ciampi 15 -  El Dorado Hills CA  Oak Ridge High School 46:18 - - - - 1 46:18 46:18 01:50 27158
3 1010  Flynn Mcconneloug 15 -  Fairfax CA  MC 48:15 - - - - 1 48:15 48:15 03:47 27417
4 393  Kyle Jacobosky 15 -  Folsom CA  Cycling Development (Vista Eagles) 48:21 - - - - 1 48:21 48:21 03:53 5692
5 980  Arman Mokhlesi 15 -  Granite Bay CA  Granite Bay HS MTB 49:05 - - - - 1 49:05 49:05 04:37 27419
6 1008  Jack Dauphinais 15 -  Mill Valley CA  Tam High School 49:19 - - - - 1 49:19 49:19 04:51 27166
7 599  Marcus Proksch 15 -  Novato CA  Tam High 55:06 - - - - 1 55:06 55:06 10:38 27428
8 808  Luke Warner 15 -  El Dorado Hills CA  Ponderosa High School 55:41 - - - - 1 55:41 55:41 11:13 27298
9 633  Charlie Held 15 -  Tiburon CA  Marin Catholic High School 55:50 - - - - 1 55:50 55:50 11:22 27403
10 392  Colby Hicks 15 -  El Dorado Hills CA  CD- Oak Ridge 55:59 - - - - 1 55:59 55:59 11:31 27201
11 809  Alexander Gonzales 15 -  El Dorado Hills CA   57:06 - - - - 1 57:06 57:06 12:38 27188
12 855  Jacob Brown 15 -  Lower Lake CA  MHS MTB 1:03:19 - - - - 1 1:03:19 1:03:19 18:51 27614
13 397  Noah Smith 15 -  Folsom CA  Vista Del Lago Eagles 1:09:45 - - - - 1 1:09:45 1:09:45 25:17 23532
14 394  Landen Macomber 15 -  Roseville CA  Woodcreek MTB 1:16:08 - - - - 1 1:16:08 1:16:08 31:40 27216
15 943  Johnnie Robertson 15 -  Auburn CA  Nevada county 1:18:19 - - - - 1 1:18:19 1:18:19 33:51 27588
--- 873  Mason Cuampi 15 -  El Dorado Hills CA  oak ridge high school - - - - - 0 - - -  27558
Freshman Boys (Born Jun 2006-Aug 2006)     Time highlighted in each category is the fastest
Pos Bib Name Age License City Sponsor Lap 1 Lap 2 Lap 3 Lap 4 Lap 5 Laps Time Avg Back Racer ID
1 982  Houston Brown 14 -  Reno NV  Reno Devo 43:59 - - - - 1 43:59 43:59   27150
2 409  Joshua Sayo 15 -  Folsom CA  Vista Eagles 48:23 - - - - 1 48:23 48:23 04:24 18627
3 401  Aidan Bennett 15 -  Diamond Springs CA  BRUINS/Cycling Development 49:34 - - - - 1 49:34 49:34 05:35 27145
4 399  Ben Asche 15 -  Roseville CA  Granite Bay MTB Team 52:42 - - - - 1 52:42 52:42 08:43 27135
5 423  Lucas Stayer 15 -  Rocklin CA  Whitney Wildcats/Cycle Development 1:09:07 - - - - 1 1:09:07 1:09:07 25:08 27275
--- 671  Jack Carson 15 -  Oakland CA   - - - - - 0 - - -  26983
--- 408  Roland Peirce 15 -  El Dorado Hills CA  Trojans - - - - - 0 - - -  5600
Freshman Boys (Born Sep 2006 or after)     Time highlighted in each category is the fastest
Pos Bib Name Age License City Sponsor Lap 1 Lap 2 Lap 3 Lap 4 Lap 5 Laps Time Avg Back Racer ID
1 480  Gavin Ashby 14 -  Sparks NV  RENO DEVO 44:41 - - - - 1 44:41 44:41   27136
2 828  Simon Hewett 13 -  Fairfax CA  B-17 Racing 45:22 - - - - 1 45:22 45:22 00:41 27531
3 963  Diego Velarde 15 -  Grass Valley CA  Nevada Union Miners MTB Team 46:33 - - - - 1 46:33 46:33 01:52 27600
4 463  Anthony Griffin-Yeh 14 -  Walnut Creek CA  SRVHS 46:42 - - - - 1 46:42 46:42 02:01 27189
5 478  Luke Armstrong 14 -  Woodland CA  Davis Composite Mountain Bike Team 47:47 - - - - 1 47:47 47:47 03:06 27131
6 632  Cole Carroll 15 -  Danville CA  SRVMTB 48:06 - - - - 1 48:06 48:06 03:25 27381
7 989  Remy Schmidt 13 -  San Rafael CA  Village Peddler Cycles 48:13 - - - - 1 48:13 48:13 03:32 22924
8 700  Jacob Camposano 13 -  Mill Valley CA   48:47 - - - - 1 48:47 48:47 04:06 27380
9 490  Lincoln Nesiba 14 -  Danville CA  San Ramon Valley MTB 50:37 - - - - 1 50:37 50:37 05:56 27240
10 906  Garrison Kress 14 -  Grass Valley CA  Nevada Union 50:51 - - - - 1 50:51 50:51 06:10 27574
11 703  Ryan Kunkel 15 -  Mill Valley CA  Mill Valley Middle School 51:26 - - - - 1 51:26 51:26 06:45 27409
12 794  Jack Wong 15 -  Mill Valley CA  Tam High 53:11 - - - - 1 53:11 53:11 08:30 27481
13 448  Jackson Icanberry 12 -  Reno NV  Reno Devo 53:24 - - - - 1 53:24 53:24 08:43 27206
14 525  Russell Smith 14 -  Mill Valley CA   54:10 - - - - 1 54:10 54:10 09:29 27332
15 995  Jaden Nunez 13 -  Nice CA  Middletown MTB 1:00:12 - - - - 1 1:00:12 1:00:12 15:31 27422
16 456  Jake Tomlinson 13 -  Davis CA  Davis Composite MTB Team 1:16:42 - - - - 1 1:16:42 1:16:42 32:01 27288
dnf 461  Ian Ganter 13 -  Davis CA  Davis Composite Mountain Bike Team - - - - - 0 - - -  27183
--- 923  Kai Miglio 15 -  Hidden Valley Lake CA  Middletown HS - - - - - 0 - - -  27624
--- 422  Conner Ramesbottom 14 -  Folsom CA  Placer Foothills Mtb Team - - - - - 0 - - -  5957
--- 767  Gavin Roberts 13 -  Danville CA   - - - - - 0 - - -  27255
--- 653  Wyatt Roberts 11 -  Danville CA   - - - - - 0 - - -  27434
--- 421  Ben Liske 15 -  Placerville CA  Hangtown / Cycling Dev - - - - - 0 - - -  20442
Beginner Women (Ages 0-39)     Time highlighted in each category is the fastest
Pos Bib Name Age License City Sponsor Lap 1 Lap 2 Lap 3 Lap 4 Lap 5 Laps Time Avg Back Racer ID
1 987  Monique Whelan 12 -  San Francisco CA  CBRE Juniors 1:02:13 - - - - 1 1:02:13 1:02:13   26671
2 866  Leslie Chairez 18 -  Hidden Valley Lake CA   1:18:33 - - - - 1 1:18:33 1:18:33 16:20 27554
Beginner Women (Ages 40-99)     Time highlighted in each category is the fastest
Pos Bib Name Age License City Sponsor Lap 1 Lap 2 Lap 3 Lap 4 Lap 5 Laps Time Avg Back Racer ID
1 142  Lizz Gallagher 51 -  Citrus Heights CA   1:14:07 - - - - 1 1:14:07 1:14:07   26985
2 974  Amy Zuber 45 -  Davis CA  Davis Composite Mountain Bike team 1:21:03 - - - - 1 1:21:03 1:21:03 06:56 27606
--- 861  Rose Carney 54 -  San Carlos CA  Woodside Beasts - - - - - 0 - - -  27549
Sophomore Girls     Time highlighted in each category is the fastest
Pos Bib Name Age License City Sponsor Lap 1 Lap 2 Lap 3 Lap 4 Lap 5 Laps Time Avg Back Racer ID
1 892  Julina Gow-Smith 16 -  San Francisco CA  San Francisco Composite 51:13 - - - - 1 51:13 51:13   27569
2 309  Ila Milelli 16 -  Danville CA  SRV MTB 56:09 - - - - 1 56:09 56:09 04:56 27226
3 319  Samanatha Wollenberger 16 -  Granite Bay CA  GBHS 58:03 - - - - 1 58:03 58:03 06:50 27305
4 950  Camille Schaffer 16 -  Hidden Valley Lake CA  Middletown High School Mtb Team 58:05 - - - - 1 58:05 58:05 06:52 27592
5 921  Ruby Mechanic 17 -  Oakland CA  Oakland Tech High School 59:02 - - - - 1 59:02 59:02 07:49 27621
6 307  Bella Ferry 17 -  Shingle Springs CA  Hangtown-Cycling Development 1:01:43 - - - - 1 1:01:43 1:01:43 10:30 5397
7 656  Julia Cuyos 17 -  Rocklin CA  Whitney Wildcats 1:05:33 - - - - 1 1:05:33 1:05:33 14:20 27387
8 306  Megan Corey 16 -  Roseville CA  Woodcreek HS 1:05:34 - - - - 1 1:05:34 1:05:34 14:21 27160
9 657  Amy Ianev 17 -  Rocklin CA  Whitney Wildcats (Cycling Development) 1:05:39 - - - - 1 1:05:39 1:05:39 14:26 27405
10 856  Asa Bush 16 -  Forestville CA  El Molino MTB Club 1:06:14 - - - - 1 1:06:14 1:06:14 15:01 27546
11 308  Ella Johnson 17 -  Roseville CA   1:07:34 - - - - 1 1:07:34 1:07:34 16:21 23667
12 310  Hannah O'Connell 15 -  El Dorado Hills CA  Oak Ridge 1:18:08 - - - - 1 1:18:08 1:18:08 26:55 27243
13 659  Gabriella Worth 15 -  Shingle Springs CA  Cycling Dev/Ponderosa 1:18:21 - - - - 1 1:18:21 1:18:21 27:08 27458
14 854  Tamar Breines 16 -  Oakland CA  Oakland Tech High School 1:20:54 - - - - 1 1:20:54 1:20:54 29:41 27613
15 865  Kamilah Chairez 18 -  Hidden Valley Lake CA   1:39:27 - - - - 1 1:39:27 1:39:27 48:14 27553
--- 314  Ellana Scharffenberg 16 -  Placerville CA  Hangtown/Cycling Development - - - - - 0 - - -  27261
--- 315  Nicole Shinstock 16 -  Davis CA   - - - - - 0 - - -  27269
--- 658  Alison Whiteside 16 -  Danville CA  SRV - - - - - 0 - - -  27454
Freshman Girls     Time highlighted in each category is the fastest
Pos Bib Name Age License City Sponsor Lap 1 Lap 2 Lap 3 Lap 4 Lap 5 Laps Time Avg Back Racer ID
1 359  Willa Bourke 14 -  Portola Vally CA   52:58 - - - - 1 52:58 52:58   27316
2 362  Barbara Donovan 16 -  Granite Bay CA  Granite Bay High School 54:11 - - - - 1 54:11 54:11 01:13 27170
3 366  Ashlyn Roeder 16 -  Menlo Park CA  Woodside Beasts 54:59 - - - - 1 54:59 54:59 02:01 27257
4 863  Kira Casartelli 15 -  Sf CA  Sf comp 55:01 - - - - 1 55:01 55:01 02:03 27552
5 917  Mya Marsh 15 -  Grass Valley CA  Nevada Union High School mtb 57:02 - - - - 1 57:02 57:02 04:04 27580
6 1000  Kira Gosling 15 -  Redwood City CA  Woodside Beasts 58:50 - - - - 1 58:50 58:50 05:52 27397
7 367  Isabel Ryan 15 -  Citrus Heights CA  Cycling Dev Spartans 58:50 - - - - 1 58:50 58:50 05:52 27259
8 909  Izzy Landry 15 -  San Rafael CA  Marin Catholic Mtb 1:00:34 - - - - 1 1:00:34 1:00:34 07:36 27575
9 429  Eva Makus 14 -  Davis CA  Davis Composite Mountain Bike Team 1:00:35 - - - - 1 1:00:35 1:00:35 07:37 27034
10 699  Daniela Ianev 15 -  Rocklin CA  Whitney Wildcats (Cycling Development) 1:02:06 - - - - 1 1:02:06 1:02:06 09:08 27406
11 844  Caterina Barriga 14 -  Hidden Valley Lake CA  Middletown Bike Team 1:03:48 - - - - 1 1:03:48 1:03:48 10:50 27542
12 972  Lilly Wood 14 -  Cobb CA  Middletown Youth MTB 1:03:50 - - - - 1 1:03:50 1:03:50 10:52 27605
13 697  Anna Bolshaw 15 -  Roseville CA  Roseville High School 1:09:04 - - - - 1 1:09:04 1:09:04 16:06 27370
14 764  Addison Bodyfelt 15 -  Roseville CA  Woodcreek High School 1:10:36 - - - - 1 1:10:36 1:10:36 17:38 27147
15 898  Lucy Huseby 16 -  Nevada City CA  Nevada Union Mountain Bike Team 1:13:36 - - - - 1 1:13:36 1:13:36 20:38 27619
16 926  Sophia Neeley 15 -  Guerneville CA  El Molino high school 1:17:44 - - - - 1 1:17:44 1:17:44 24:46 27584
17 970  Marlee Withrow 16 -  Grass Valley CA  Nevada Union High School 1:20:08 - - - - 1 1:20:08 1:20:08 27:10 27603